createdAt,value
2022-11-25T00:00:12.208Z,81.68
2022-11-25T00:02:45.372Z,81.60
2022-11-25T00:05:12.445Z,81.47
2022-11-25T00:07:39.541Z,81.53
2022-11-25T00:10:07.445Z,82.23
2022-11-25T00:12:34.608Z,81.97
2022-11-25T00:15:01.617Z,81.39
2022-11-25T00:17:28.511Z,81.56
2022-11-25T00:19:55.525Z,81.55
2022-11-25T00:22:22.436Z,81.70
2022-11-25T00:24:49.368Z,81.04
2022-11-25T00:27:16.210Z,81.31
2022-11-25T00:29:43.169Z,81.15
2022-11-25T00:32:10.162Z,81.32
2022-11-25T00:34:37.298Z,81.26
2022-11-25T00:37:04.519Z,81.13
2022-11-25T00:39:31.466Z,80.30
2022-11-25T00:42:16.985Z,80.65
2022-11-25T00:44:43.932Z,80.24
2022-11-25T00:47:13.910Z,80.52
2022-11-25T00:49:43.447Z,80.33
2022-11-25T00:52:14.276Z,80.07
2022-11-25T00:54:41.193Z,80.42
2022-11-25T00:57:08.389Z,80.37
2022-11-25T00:59:35.631Z,80.38
2022-11-25T01:02:04.199Z,80.23
2022-11-25T01:04:31.210Z,79.69
2022-11-25T01:07:00.329Z,79.81
2022-11-25T01:09:27.822Z,79.45
2022-11-25T01:11:54.849Z,79.60
2022-11-25T01:14:22.552Z,79.83
2022-11-25T01:16:50.459Z,80.03
2022-11-25T01:19:18.764Z,80.11
2022-11-25T01:21:45.725Z,80.26
2022-11-25T01:24:14.477Z,80.31
2022-11-25T01:26:41.944Z,79.66
2022-11-25T01:29:14.500Z,79.35
2022-11-25T01:31:41.973Z,79.51
2022-11-25T01:34:24.884Z,79.63
2022-11-25T01:36:51.838Z,79.31
2022-11-25T01:39:22.725Z,79.85
2022-11-25T01:41:51.512Z,79.96
2022-11-25T01:44:20.702Z,80.15
2022-11-25T01:47:18.537Z,80.17
2022-11-25T01:49:51.522Z,80.13
2022-11-25T01:52:38.978Z,78.88
2022-11-25T01:55:10.887Z,78.50
2022-11-25T01:57:39.186Z,79.17
2022-11-25T02:00:08.878Z,79.07
2022-11-25T02:02:36.342Z,79.31
2022-11-25T02:05:07.570Z,79.44
2022-11-25T02:07:38.131Z,79.56
2022-11-25T02:10:11.647Z,79.35
2022-11-25T02:12:40.388Z,79.81
2022-11-25T02:15:08.474Z,80.15
2022-11-25T02:17:35.603Z,80.00
2022-11-25T02:20:05.935Z,80.48
2022-11-25T02:22:45.065Z,80.41
2022-11-25T02:25:16.563Z,80.53
2022-11-25T02:27:45.155Z,80.47
2022-11-25T02:30:12.611Z,80.26
2022-11-25T02:32:47.159Z,80.16
2022-11-25T02:35:56.831Z,80.25
2022-11-25T02:38:32.908Z,79.50
2022-11-25T02:41:17.235Z,80.26
2022-11-25T02:43:44.691Z,80.33
2022-11-25T02:46:22.195Z,80.08
2022-11-25T02:49:08.296Z,80.52
2022-11-25T02:51:35.669Z,80.34
2022-11-25T02:54:03.085Z,80.09
2022-11-25T02:56:32.753Z,80.61
2022-11-25T02:59:00.023Z,81.21
2022-11-25T03:01:30.046Z,80.95
2022-11-25T03:03:57.380Z,80.28
2022-11-25T03:06:24.493Z,80.49
2022-11-25T03:08:51.561Z,80.38
2022-11-25T03:11:18.518Z,80.48
2022-11-25T03:13:45.464Z,80.66
2022-11-25T03:16:12.905Z,80.60
2022-11-25T03:18:39.890Z,80.39
2022-11-25T03:21:07.827Z,80.39
2022-11-25T03:23:34.807Z,79.50
2022-11-25T03:26:06.357Z,80.03
2022-11-25T03:28:33.310Z,80.23
2022-11-25T03:31:00.232Z,80.35
2022-11-25T03:33:27.435Z,80.13
2022-11-25T03:35:54.418Z,79.59
2022-11-25T03:38:21.368Z,79.58
2022-11-25T03:40:50.624Z,79.48
2022-11-25T03:43:17.520Z,78.83
2022-11-25T03:45:44.545Z,79.33
2022-11-25T03:48:11.554Z,79.11
2022-11-25T03:50:38.522Z,78.63
2022-11-25T03:53:05.418Z,78.71
2022-11-25T03:55:32.779Z,79.05
2022-11-25T03:57:59.739Z,78.94
2022-11-25T04:00:26.997Z,78.81
2022-11-25T04:02:54.012Z,79.11
2022-11-25T04:05:21.055Z,79.05
2022-11-25T04:07:48.041Z,78.90
2022-11-25T04:10:15.156Z,78.60
2022-11-25T04:12:48.040Z,79.18
2022-11-25T04:15:16.829Z,79.23
2022-11-25T04:17:44.234Z,79.85
2022-11-25T04:20:12.559Z,79.78
2022-11-25T04:22:39.543Z,79.79
2022-11-25T04:25:08.015Z,79.31
2022-11-25T04:27:34.944Z,78.67
2022-11-25T04:30:01.899Z,78.99
2022-11-25T04:32:28.809Z,79.49
2022-11-25T04:34:55.994Z,79.52
2022-11-25T04:37:22.949Z,79.76
2022-11-25T04:39:49.977Z,79.22
2022-11-25T04:42:31.932Z,79.30
2022-11-25T04:45:21.365Z,79.15
2022-11-25T04:47:46.957Z,79.30
2022-11-25T04:50:17.392Z,79.02
2022-11-25T04:52:44.424Z,79.10
2022-11-25T04:55:12.073Z,79.24
2022-11-25T04:57:39.038Z,79.95
2022-11-25T05:00:06.738Z,79.66
2022-11-25T05:02:33.735Z,79.75
2022-11-25T05:05:01.155Z,79.72
2022-11-25T05:07:28.990Z,78.98
2022-11-25T05:09:56.566Z,79.09
2022-11-25T05:12:28.737Z,79.18
2022-11-25T05:14:56.521Z,79.36
2022-11-25T05:17:25.681Z,79.73
2022-11-25T05:19:54.700Z,79.85
2022-11-25T05:22:27.609Z,79.81
2022-11-25T05:24:55.188Z,79.85
2022-11-25T05:27:22.683Z,79.85
2022-11-25T05:29:55.509Z,79.62
2022-11-25T05:32:23.035Z,79.02
2022-11-25T05:34:49.974Z,79.19
2022-11-25T05:37:21.275Z,78.73
2022-11-25T05:39:51.354Z,79.28
2022-11-25T05:42:18.495Z,79.07
2022-11-25T05:44:45.574Z,78.42
2022-11-25T05:47:12.535Z,78.44
2022-11-25T05:49:39.437Z,79.67
2022-11-25T05:52:06.420Z,79.21
2022-11-25T05:54:33.945Z,79.15
2022-11-25T05:57:01.018Z,79.55
2022-11-25T05:59:27.962Z,79.59
2022-11-25T06:01:55.704Z,79.79
2022-11-25T06:04:22.725Z,79.95
2022-11-25T06:06:49.675Z,79.52
2022-11-25T06:09:16.699Z,79.90
2022-11-25T06:11:46.414Z,79.48
2022-11-25T06:14:13.341Z,79.76
2022-11-25T06:16:41.499Z,80.11
2022-11-25T06:19:08.469Z,79.77
2022-11-25T06:21:35.547Z,79.63
2022-11-25T06:24:02.869Z,79.14
2022-11-25T06:26:29.886Z,79.48
2022-11-25T06:28:57.204Z,78.95
2022-11-25T06:31:26.945Z,78.69
2022-11-25T06:33:55.126Z,78.61
2022-11-25T06:36:23.045Z,79.19
2022-11-25T06:38:52.843Z,78.86
2022-11-25T06:41:20.940Z,78.87
2022-11-25T06:43:47.941Z,78.93
2022-11-25T06:46:19.878Z,78.63
2022-11-25T06:48:53.470Z,78.11
2022-11-25T06:51:20.573Z,77.93
2022-11-25T06:53:47.769Z,78.08
2022-11-25T06:56:24.363Z,78.77
2022-11-25T06:58:52.623Z,78.39
2022-11-25T07:01:22.341Z,78.40
2022-11-25T07:03:52.136Z,78.07
2022-11-25T07:06:20.044Z,78.20
2022-11-25T07:08:47.303Z,78.07
2022-11-25T07:11:17.324Z,78.29
2022-11-25T07:13:44.746Z,78.21
2022-11-25T07:16:12.173Z,78.10
2022-11-25T07:18:39.894Z,77.91
2022-11-25T07:21:17.086Z,78.07
2022-11-25T07:23:45.301Z,77.79
2022-11-25T07:26:13.308Z,77.98
2022-11-25T07:28:40.732Z,77.44
2022-11-25T07:34:00.760Z,76.89
2022-11-25T07:36:28.660Z,76.55
2022-11-25T07:38:55.942Z,76.58
2022-11-25T07:41:25.868Z,76.86
2022-11-25T07:43:58.099Z,76.97
2022-11-25T07:46:27.314Z,76.43
2022-11-25T07:49:01.184Z,76.19
2022-11-25T07:51:36.476Z,76.91
2022-11-25T07:54:05.847Z,76.69
2022-11-25T07:56:35.328Z,76.34
2022-11-25T07:59:02.770Z,76.34
2022-11-25T08:01:31.803Z,76.76
2022-11-25T08:03:58.993Z,76.56
2022-11-25T08:06:28.287Z,76.62
2022-11-25T08:08:57.426Z,76.59
2022-11-25T08:11:29.604Z,76.70
2022-11-25T08:13:57.348Z,76.90
2022-11-25T08:16:27.754Z,76.47
2022-11-25T08:18:56.170Z,76.23
2022-11-25T08:21:23.269Z,76.38
2022-11-25T08:23:52.706Z,76.29
2022-11-25T08:26:24.297Z,76.65
2022-11-25T08:28:51.364Z,76.53
2022-11-25T08:31:21.339Z,76.89
2022-11-25T08:33:48.809Z,76.50
2022-11-25T08:36:16.770Z,76.98
2022-11-25T08:38:45.008Z,77.30
2022-11-25T08:41:29.122Z,76.99
2022-11-25T08:43:58.229Z,77.32
2022-11-25T08:46:28.202Z,76.60
2022-11-25T08:48:55.361Z,77.12
2022-11-25T08:51:25.022Z,76.91
2022-11-25T08:53:52.333Z,76.57
2022-11-25T08:56:25.743Z,76.85
2022-11-25T08:58:54.828Z,76.93
2022-11-25T09:01:22.837Z,76.65
2022-11-25T09:03:52.384Z,76.78
2022-11-25T09:06:20.568Z,76.73
2022-11-25T09:08:48.001Z,76.80
2022-11-25T09:11:15.693Z,76.65
2022-11-25T09:13:42.934Z,76.36
2022-11-25T09:16:10.191Z,76.90
2022-11-25T09:18:37.598Z,76.44
2022-11-25T09:21:12.623Z,76.82
2022-11-25T09:23:40.174Z,76.69
2022-11-25T09:26:08.136Z,76.50
2022-11-25T09:28:35.895Z,76.02
2022-11-25T09:31:12.025Z,75.91
2022-11-25T09:33:39.017Z,75.11
2022-11-25T09:36:06.681Z,74.92
2022-11-25T09:38:35.664Z,74.70
2022-11-25T09:41:10.920Z,75.07
2022-11-25T09:44:41.020Z,75.07
2022-11-25T09:47:20.925Z,75.21
2022-11-25T09:50:05.515Z,75.19
2022-11-25T09:53:03.549Z,75.65
2022-11-25T09:55:35.795Z,75.43
2022-11-25T09:58:22.768Z,75.95
2022-11-25T10:00:51.565Z,76.03
2022-11-25T10:03:46.945Z,76.18
2022-11-25T10:06:18.565Z,75.72
2022-11-25T10:08:48.946Z,76.04
2022-11-25T10:11:25.072Z,76.08
2022-11-25T10:14:02.816Z,76.04
2022-11-25T10:16:34.995Z,75.93
2022-11-25T10:19:16.891Z,76.25
2022-11-25T10:21:43.852Z,75.96
2022-11-25T10:24:14.954Z,75.80
2022-11-25T10:26:46.048Z,75.77
2022-11-25T10:29:31.874Z,75.52
2022-11-25T10:32:12.605Z,75.82
2022-11-25T10:35:00.951Z,75.63
2022-11-25T10:37:31.832Z,75.22
2022-11-25T10:39:58.825Z,75.56
2022-11-25T10:42:27.856Z,75.70
2022-11-25T10:44:55.288Z,75.68
2022-11-25T10:47:42.104Z,75.67
2022-11-25T10:50:48.831Z,75.65
2022-11-25T10:53:18.479Z,75.74
2022-11-25T10:56:12.918Z,75.90
2022-11-25T10:58:41.135Z,75.48
2022-11-25T11:01:14.395Z,75.42
2022-11-25T11:03:46.926Z,75.33
2022-11-25T11:06:36.850Z,75.43
2022-11-25T11:09:05.039Z,75.41
2022-11-25T11:11:32.863Z,75.37
2022-11-25T11:14:13.553Z,74.75
2022-11-25T11:16:45.831Z,75.06
2022-11-25T11:19:30.163Z,75.18
2022-11-25T11:21:58.029Z,75.08
2022-11-25T11:24:35.965Z,74.87
2022-11-25T11:27:18.545Z,75.24
2022-11-25T11:29:45.496Z,75.24
2022-11-25T11:32:25.701Z,75.24
2022-11-25T11:35:20.513Z,75.17
2022-11-25T11:37:53.315Z,75.22
2022-11-25T11:40:31.760Z,75.32
2022-11-25T11:43:26.634Z,75.57
2022-11-25T11:46:04.663Z,75.09
2022-11-25T11:48:57.144Z,74.71
2022-11-25T11:51:24.060Z,75.20
2022-11-25T11:53:51.083Z,74.93
2022-11-25T11:56:55.588Z,74.68
2022-11-25T11:59:47.044Z,74.99
2022-11-25T12:02:23.536Z,75.01
2022-11-25T12:05:00.781Z,75.21
2022-11-25T12:07:34.221Z,75.44
2022-11-25T12:10:11.082Z,75.39
2022-11-25T12:13:01.292Z,75.00
2022-11-25T12:15:39.572Z,75.77
2022-11-25T12:18:41.625Z,75.89
2022-11-25T12:21:28.828Z,75.43
2022-11-25T12:24:05.103Z,75.21
2022-11-25T12:26:40.366Z,76.02
2022-11-25T12:29:12.893Z,76.08
2022-11-25T12:31:43.013Z,75.89
2022-11-25T12:34:34.548Z,76.19
2022-11-25T12:37:14.801Z,76.26
2022-11-25T12:40:08.504Z,76.08
2022-11-25T12:42:37.301Z,76.32
2022-11-25T12:45:25.202Z,75.86
2022-11-25T12:47:52.934Z,76.33
2022-11-25T12:50:34.997Z,75.88
2022-11-25T12:53:41.203Z,75.65
2022-11-25T12:56:17.444Z,75.45
2022-11-25T12:59:27.864Z,75.85
2022-11-25T13:02:14.608Z,75.55
2022-11-25T13:05:39.516Z,76.27
2022-11-25T13:08:14.710Z,76.02
2022-11-25T13:11:18.291Z,76.36
2022-11-25T13:13:57.072Z,76.13
2022-11-25T13:16:24.852Z,76.36
2022-11-25T13:18:52.530Z,76.54
2022-11-25T13:21:19.913Z,75.92
2022-11-25T13:24:10.120Z,76.60
2022-11-25T13:26:47.588Z,76.53
2022-11-25T13:29:14.502Z,77.04
2022-11-25T13:32:03.176Z,76.90
2022-11-25T13:34:37.192Z,76.89
2022-11-25T13:37:36.595Z,77.35
2022-11-25T13:40:31.754Z,77.07
2022-11-25T13:43:00.781Z,76.99
2022-11-25T13:45:42.505Z,76.98
2022-11-25T13:48:28.867Z,77.00
2022-11-25T13:51:32.683Z,77.42
2022-11-25T13:54:05.411Z,77.52
2022-11-25T13:56:32.902Z,77.66
2022-11-25T13:59:08.954Z,77.75
2022-11-25T14:01:36.876Z,77.41
2022-11-25T14:04:36.352Z,77.93
2022-11-25T14:07:50.257Z,78.10
2022-11-25T14:10:57.859Z,77.61
2022-11-25T14:13:41.529Z,78.19
2022-11-25T14:16:11.389Z,78.20
2022-11-25T14:22:12.057Z,78.32
2022-11-25T14:24:42.274Z,78.37
2022-11-25T14:27:18.898Z,78.53
2022-11-25T14:30:10.650Z,78.31
2022-11-25T14:33:14.219Z,78.47
2022-11-25T14:35:45.825Z,78.15
2022-11-25T14:38:51.482Z,78.60
2022-11-25T14:41:21.587Z,78.29
2022-11-25T14:43:54.072Z,78.24
2022-11-25T14:46:25.650Z,78.33
2022-11-25T14:48:58.201Z,78.37
2022-11-25T14:51:26.723Z,78.73
2022-11-25T14:53:53.998Z,78.94
2022-11-25T14:56:30.276Z,78.87
2022-11-25T14:58:58.372Z,78.63
2022-11-25T15:01:30.883Z,78.84
2022-11-25T15:04:02.799Z,79.09
2022-11-25T15:06:35.457Z,79.01
2022-11-25T15:09:02.749Z,78.76
2022-11-25T15:11:32.346Z,78.96
2022-11-25T15:14:03.528Z,78.92
2022-11-25T15:16:32.292Z,78.95
2022-11-25T15:19:01.562Z,79.09
2022-11-25T15:21:40.818Z,79.21
2022-11-25T15:24:28.867Z,79.56
2022-11-25T15:26:58.834Z,79.41
2022-11-25T15:29:26.737Z,79.50
2022-11-25T15:31:54.307Z,79.45
2022-11-25T15:34:22.901Z,79.28
2022-11-25T15:36:54.183Z,78.82
2022-11-25T15:39:21.994Z,79.32
2022-11-25T15:42:04.313Z,78.89
2022-11-25T15:44:34.287Z,79.21
2022-11-25T15:47:05.506Z,79.07
2022-11-25T15:49:34.010Z,78.91
2022-11-25T15:52:08.769Z,79.09
2022-11-25T15:54:41.318Z,79.12
2022-11-25T15:57:43.748Z,79.07
2022-11-25T16:00:16.985Z,78.85
2022-11-25T16:02:44.021Z,79.10
2022-11-25T16:05:14.378Z,79.29
2022-11-25T16:07:50.719Z,79.33
2022-11-25T16:10:23.713Z,79.19
2022-11-25T16:13:29.218Z,79.30
2022-11-25T16:16:15.392Z,79.31
2022-11-25T16:19:02.624Z,79.40
2022-11-25T16:21:35.737Z,79.62
2022-11-25T16:24:05.780Z,79.61
2022-11-25T16:26:35.901Z,79.27
2022-11-25T16:29:14.132Z,79.34
2022-11-25T16:31:41.879Z,78.89
2022-11-25T16:34:20.430Z,79.14
2022-11-25T16:36:47.411Z,78.96
2022-11-25T16:39:14.423Z,79.09
2022-11-25T16:41:42.164Z,79.03
2022-11-25T16:44:20.037Z,79.21
2022-11-25T16:46:47.214Z,79.32
2022-11-25T16:49:15.787Z,79.33
2022-11-25T16:51:43.446Z,79.56
2022-11-25T16:54:10.886Z,79.09
2022-11-25T16:56:40.588Z,78.72
2022-11-25T16:59:10.297Z,79.12
2022-11-25T17:01:37.268Z,79.26
2022-11-25T17:04:04.224Z,79.38
2022-11-25T17:06:32.986Z,79.50
2022-11-25T17:08:59.919Z,79.67
2022-11-25T17:11:32.865Z,79.73
2022-11-25T17:14:02.954Z,79.93
2022-11-25T17:16:30.479Z,79.68
2022-11-25T17:18:59.548Z,79.86
2022-11-25T17:21:30.017Z,79.88
2022-11-25T17:24:02.929Z,79.68
2022-11-25T17:26:38.643Z,79.60
2022-11-25T17:29:08.387Z,79.54
2022-11-25T17:31:38.611Z,79.79
2022-11-25T17:34:05.677Z,79.33
2022-11-25T17:36:32.633Z,79.43
2022-11-25T17:38:59.652Z,79.46
2022-11-25T17:41:29.856Z,79.31
2022-11-25T17:43:56.821Z,79.00
2022-11-25T17:46:28.901Z,78.92
2022-11-25T17:48:55.877Z,79.66
2022-11-25T17:51:22.806Z,79.75
2022-11-25T17:53:49.713Z,80.00
2022-11-25T17:56:29.969Z,80.01
2022-11-25T17:59:01.560Z,80.03
2022-11-25T18:01:28.567Z,79.80
2022-11-25T18:03:55.750Z,79.69
2022-11-25T18:06:24.086Z,79.89
2022-11-25T18:08:51.571Z,79.59
2022-11-25T18:11:19.851Z,79.87
2022-11-25T18:13:47.889Z,79.75
2022-11-25T18:16:19.118Z,79.78
2022-11-25T18:18:46.713Z,79.87
2022-11-25T18:21:13.652Z,80.25
2022-11-25T18:23:40.629Z,80.24
2022-11-25T18:26:10.956Z,79.70
2022-11-25T18:28:38.061Z,80.03
2022-11-25T18:31:06.587Z,79.90
2022-11-25T18:33:33.778Z,79.84
2022-11-25T18:36:00.698Z,80.42
2022-11-25T18:38:27.826Z,80.08
2022-11-25T18:40:55.289Z,79.81
2022-11-25T18:43:23.716Z,80.16
2022-11-25T18:45:51.228Z,80.13
2022-11-25T18:48:20.362Z,79.99
2022-11-25T18:50:48.141Z,79.57
2022-11-25T18:53:15.313Z,79.34
2022-11-25T18:55:42.785Z,79.22
2022-11-25T18:58:16.599Z,79.82
2022-11-25T19:00:44.271Z,79.04
2022-11-25T19:03:18.312Z,79.87
2022-11-25T19:05:45.755Z,80.32
2022-11-25T19:08:12.679Z,79.84
2022-11-25T19:10:41.375Z,79.72
2022-11-25T19:13:18.717Z,79.85
2022-11-25T19:15:46.155Z,80.22
2022-11-25T19:18:16.792Z,79.98
2022-11-25T19:20:43.744Z,80.37
2022-11-25T19:23:22.987Z,80.03
2022-11-25T19:25:50.186Z,79.73
2022-11-25T19:28:17.639Z,79.96
2022-11-25T19:30:46.322Z,80.04
2022-11-25T19:33:21.954Z,79.37
2022-11-25T19:35:48.889Z,79.87
2022-11-25T19:38:21.736Z,80.29
2022-11-25T19:40:49.742Z,80.33
2022-11-25T19:43:16.799Z,79.66
2022-11-25T19:45:44.443Z,80.34
2022-11-25T19:48:18.116Z,79.84
2022-11-25T19:50:47.049Z,80.40
2022-11-25T19:53:20.550Z,80.40
2022-11-25T19:55:48.190Z,80.14
2022-11-25T19:58:15.900Z,79.98
2022-11-25T20:00:43.636Z,80.21
2022-11-25T20:03:23.104Z,80.13
2022-11-25T20:05:51.826Z,80.28
2022-11-25T20:08:29.126Z,80.18
2022-11-25T20:10:57.221Z,80.17
2022-11-25T20:13:26.375Z,80.31
2022-11-25T20:15:54.234Z,80.21
2022-11-25T20:18:23.257Z,80.37
2022-11-25T20:20:57.196Z,80.38
2022-11-25T20:23:44.049Z,80.24
2022-11-25T20:26:27.651Z,80.59
2022-11-25T20:28:54.749Z,80.50
2022-11-25T20:31:22.156Z,80.46
2022-11-25T20:33:50.045Z,80.60
2022-11-25T20:36:19.517Z,80.73
2022-11-25T20:38:54.812Z,80.55
2022-11-25T20:41:27.667Z,80.58
2022-11-25T20:43:55.901Z,79.95
2022-11-25T20:46:25.267Z,80.54
2022-11-25T20:48:54.542Z,80.59
2022-11-25T20:51:23.291Z,80.52
2022-11-25T20:53:52.928Z,80.33
2022-11-25T20:56:22.108Z,80.58
2022-11-25T20:58:49.228Z,80.83
2022-11-25T21:01:17.297Z,80.69
2022-11-25T21:03:45.945Z,80.64
2022-11-25T21:06:21.542Z,80.74
2022-11-25T21:08:50.750Z,80.55
2022-11-25T21:11:18.569Z,80.86
2022-11-25T21:13:46.192Z,80.53
2022-11-25T21:16:13.526Z,80.84
2022-11-25T21:18:41.630Z,80.72
2022-11-25T21:21:29.539Z,80.78
2022-11-25T21:23:56.758Z,80.63
2022-11-25T21:26:25.911Z,81.04
2022-11-25T21:28:53.757Z,81.03
2022-11-25T21:31:24.674Z,81.35
2022-11-25T21:33:53.813Z,80.87
2022-11-25T21:36:23.036Z,81.07
2022-11-25T21:38:52.298Z,81.19
2022-11-25T21:41:19.797Z,80.90
2022-11-25T21:43:49.377Z,80.89
2022-11-25T21:46:21.793Z,80.94
2022-11-25T21:48:48.762Z,80.78
2022-11-25T21:51:21.995Z,81.04
2022-11-25T21:53:51.137Z,80.67
2022-11-25T21:56:27.256Z,81.08
2022-11-25T21:58:55.451Z,80.86
2022-11-25T22:01:25.386Z,80.88
2022-11-25T22:03:52.618Z,80.77
2022-11-25T22:06:22.945Z,80.97
2022-11-25T22:08:50.428Z,81.07
2022-11-25T22:11:20.132Z,81.09
2022-11-25T22:13:48.791Z,80.52
2022-11-25T22:16:18.142Z,81.18
2022-11-25T22:18:45.569Z,81.06
2022-11-25T22:21:14.076Z,81.20
2022-11-25T22:23:43.284Z,80.85
2022-11-25T22:26:33.961Z,81.06
2022-11-25T22:29:01.943Z,81.04
2022-11-25T22:31:29.046Z,80.70
2022-11-25T22:33:56.301Z,80.61
2022-11-25T22:36:26.309Z,81.05
2022-11-25T22:38:53.459Z,80.75
2022-11-25T22:41:20.545Z,80.76
2022-11-25T22:43:50.670Z,80.86
2022-11-25T22:46:18.288Z,80.95
2022-11-25T22:48:45.433Z,80.78
2022-11-25T22:51:17.438Z,80.91
2022-11-25T22:53:44.534Z,80.89
2022-11-25T22:56:19.250Z,81.12
2022-11-25T22:58:46.674Z,81.09
2022-11-25T23:01:15.130Z,80.82
2022-11-25T23:03:43.916Z,81.18
2022-11-25T23:06:13.182Z,81.16
2022-11-25T23:08:40.788Z,80.30
2022-11-25T23:11:10.241Z,80.65
2022-11-25T23:13:37.616Z,80.60
2022-11-25T23:16:05.334Z,80.54
2022-11-25T23:18:45.328Z,80.00
2022-11-25T23:21:20.822Z,80.78
2022-11-25T23:23:47.847Z,80.99
2022-11-25T23:28:56.034Z,80.73
2022-11-25T23:31:25.941Z,81.08
2022-11-25T23:33:53.004Z,81.11
2022-11-25T23:36:33.928Z,80.68
2022-11-25T23:39:02.450Z,80.89
2022-11-25T23:41:31.324Z,80.87
2022-11-25T23:44:03.538Z,80.90
2022-11-25T23:46:34.084Z,81.00
2022-11-25T23:49:02.695Z,80.06
2022-11-25T23:51:30.253Z,80.31
2022-11-25T23:53:58.035Z,80.78
2022-11-25T23:56:26.386Z,81.37
2022-11-25T23:58:53.380Z,80.57
